Latest Weather Observations for Wynyard

IDT60801

Issued at 10:02 am EST Wednesday 24 May 2017 (issued every 30 minutes, with the page automatically refreshed every 10 minutes)

About weather observations | Map of weather stations | Latest weather observations for TAS | Other Formats
Station Details ID: 091107 Name: WYNYARD AIRPORT Lat: -41.00 Lon: 145.73 Height: 12.0 m
Data from the previous 72 hours. | See also: Recent months at Wynyard
Date/Time
EST
Temp
°C
App
Temp
°C
Dew
Point
°C
Rel
Hum
%
Delta-T
°C
Wind Press
QNH
hPa
Press
MSL
hPa
Rain since
9am
mm
Dir  Spd
km/h
Gust
km/h
Spd
kts
Gust
kts
24/10:00am 12.9 8.9 8.2 73 2.3 W 19 28 10 15 1009.8 1009.9 0.0
24/09:30am 12.6 8.2 8.9 78 1.9 W 22 30 12 16 1009.5 1009.6 0.0
24/09:00am 11.9 8.6 9.5 85 1.2 WSW 17 20 9 11 1009.2 1009.3 13.4
24/08:30am 11.1 7.8 9.5 90 0.8 WSW 17 20 9 11 1008.8 1008.9 13.4
24/08:00am 10.2 8.0 9.3 94 0.4 W 11 15 6 8 1008.4 1008.5 13.4
24/07:30am 9.3 6.9 8.5 95 0.4 W 11 15 6 8 1008.1 1008.1 13.4
24/07:00am 9.4 7.0 8.5 94 0.4 WSW 11 13 6 7 1007.6 1007.6 13.4
24/06:30am 11.0 9.4 10.2 95 0.4 WSW 9 13 5 7 1007.4 1007.4 13.4
24/06:01am 11.2 9.3 10.6 96 0.3 W 11 15 6 8 1007.4 1007.4 13.4
24/06:00am 11.2 9.3 10.6 96 0.3 W 11 15 6 8 1007.4 1007.4 13.4
24/05:45am 10.7 8.7 10.1 96 0.3 WSW 11 13 6 7 1007.3 1007.3 13.2
24/05:30am 10.4 8.6 9.6 95 0.4 W 9 11 5 6 1007.2 1007.2 13.2
24/05:00am 10.8 8.4 9.9 94 0.5 W 13 17 7 9 1007.2 1007.2 13.2
24/04:30am 10.8 8.1 10.2 96 0.3 WNW 15 20 8 11 1007.3 1007.3 13.2
24/04:03am 11.0 8.7 10.5 97 0.3 WNW 13 19 7 10 1007.4 1007.4 13.2
24/04:00am 11.0 8.7 10.5 97 0.3 WNW 13 19 7 10 1007.4 1007.4 13.2
24/03:30am 10.7 9.7 10.2 97 0.3 SSW 6 9 3 5 1007.6 1007.6 9.2
24/03:24am 10.5 10.6 10.0 97 0.3 CALM 0 9 0 5 1007.5 1007.5 8.4
24/03:21am 10.4 10.0 9.9 97 0.3 SSW 2 7 1 4 1007.6 1007.6 8.2
24/03:00am 10.3 8.6 9.7 96 0.3 SW 9 13 5 7 1008.2 1008.2 7.4
24/02:55am 10.3 8.6 9.7 96 0.3 WSW 9 11 5 6 1008.2 1008.2 7.0
24/02:41am 10.5 9.2 9.9 96 0.3 WNW 7 9 4 5 1008.3 1008.4 6.6
24/02:30am 10.3 8.5 9.5 95 0.4 W 9 13 5 7 1008.4 1008.5 6.4
24/02:00am 10.6 9.3 9.8 95 0.4 SSW 7 11 4 6 1008.6 1008.7 6.4
24/01:38am 10.8 7.6 9.9 94 0.5 W 17 20 9 11 1009.0 1009.1 6.4
24/01:30am 11.0 7.4 9.9 93 0.6 W 19 32 10 17 1009.0 1009.1 6.4
24/01:12am 11.0 8.0 10.7 98 0.2 SW 17 30 9 16 1009.4 1009.5 3.4
24/01:00am 10.9 10.7 10.6 98 0.2 SW 2 7 1 4 1009.1 1009.2 1.0
24/12:30am 10.5 9.3 10.2 98 0.2 SSE 7 9 4 5 1009.6 1009.7 1.0
24/12:00am 9.5 8.6 9.2 98 0.1 SSW 4 9 2 5 1010.3 1010.4 1.0
 
Date/Time
EST
Temp
°C
App
Temp
°C
Dew
Point
°C
Rel
Hum
%
Delta-T
°C
Wind Press
QNH
hPa
Press
MSL
hPa
Rain since
9am
mm
Dir  Spd
km/h
Gust
km/h
Spd
kts
Gust
kts
23/11:30pm 8.7 7.2 8.3 97 0.2 S 6 9 3 5 1010.5 1010.6 1.0
23/11:00pm 9.6 9.4 9.1 97 0.2 CALM 0 6 0 3 1011.0 1011.1 1.0
23/10:30pm 10.3 9.5 9.7 96 0.3 S 4 9 2 5 1011.3 1011.4 1.0
23/10:23pm 10.0 9.1 9.2 95 0.4 S 4 9 2 5 1011.5 1011.6 1.0
23/10:00pm 10.9 10.6 10.1 95 0.4 S 2 6 1 3 1011.6 1011.7 1.0
23/09:30pm 11.1 10.8 10.2 94 0.5 SW 2 6 1 3 1011.8 1011.9 1.0
23/09:27pm 11.2 10.9 10.1 93 0.6 SW 2 6 1 3 1011.8 1011.9 1.0
23/09:03pm 12.0 10.9 10.7 92 0.7 WSW 7 9 4 5 1012.0 1012.1 1.0
23/09:00pm 12.1 11.0 10.7 91 0.7 WSW 7 9 4 5 1012.0 1012.1 1.0
23/08:30pm 13.8 12.7 11.8 88 1.1 NW 9 11 5 6 1012.2 1012.3 1.0
23/08:00pm 14.2 12.4 12.1 87 1.1 NW 13 17 7 9 1012.1 1012.2 1.0
23/07:30pm 14.0 12.6 12.2 89 1.0 NW 11 17 6 9 1012.1 1012.2 1.0
23/07:00pm 14.0 13.0 12.2 89 1.0 NNW 9 13 5 7 1012.2 1012.3 1.0
23/06:30pm 14.1 13.2 12.5 90 0.9 NW 9 17 5 9 1012.2 1012.3 1.0
23/06:00pm 13.9 13.0 12.5 91 0.8 NW 9 11 5 6 1012.2 1012.3 1.0
23/05:30pm 14.0 12.7 12.4 90 0.9 NNW 11 13 6 7 1012.1 1012.2 1.0
23/05:00pm 14.6 12.9 12.5 87 1.1 NW 13 19 7 10 1012.2 1012.3 1.0
23/04:30pm 15.0 12.9 12.5 85 1.4 NW 15 22 8 12 1012.2 1012.3 1.0
23/04:00pm 15.1 13.1 12.8 86 1.3 NW 15 20 8 11 1012.1 1012.2 1.0
23/03:30pm 15.2 12.2 12.0 81 1.7 NNW 19 26 10 14 1012.0 1012.1 1.0
23/03:00pm 15.8 13.3 12.4 80 1.9 NNW 17 24 9 13 1012.1 1012.2 1.0
23/02:30pm 16.2 13.3 12.9 81 1.8 NW 20 28 11 15 1012.2 1012.3 1.0
23/02:11pm 15.8 12.8 12.4 80 1.9 WNW 20 30 11 16 1012.4 1012.5 1.0
23/02:00pm 15.8 12.3 12.2 79 2.0 WNW 22 32 12 17 1012.4 1012.5 1.0
23/01:41pm 16.1 12.8 12.8 81 1.8 NW 22 30 12 16 1012.7 1012.8 1.0
23/01:30pm 16.3 12.6 12.8 80 1.9 WNW 24 32 13 17 1012.6 1012.7 1.0
23/01:00pm 15.9 13.2 13.0 83 1.6 NW 19 30 10 16 1013.0 1013.1 1.0
23/12:42pm 15.0 12.6 12.7 86 1.3 NW 17 24 9 13 1013.4 1013.5 1.0
23/12:30pm 14.7 12.7 12.7 88 1.1 NW 15 19 8 10 1013.7 1013.8 1.0
23/12:00pm 14.8 12.4 12.7 87 1.2 NW 17 22 9 12 1014.2 1014.3 1.0
23/11:30am 14.5 11.8 12.9 90 0.9 NW 19 24 10 13 1014.7 1014.8 0.8
23/11:00am 14.8 12.8 12.8 88 1.1 NW 15 20 8 11 1015.1 1015.2 0.4
23/10:30am 15.1 14.2 13.8 92 0.7 WNW 11 15 6 8 1014.9 1015.0 0.4
23/10:00am 14.6 13.7 13.8 95 0.4 WSW 11 15 6 8 1014.5 1014.6 0.4
23/09:30am 14.1 13.2 13.6 97 0.3 NW 11 17 6 9 1015.5 1015.6 0.2
23/09:00am 13.4 13.2 13.1 98 0.2 WNW 6 9 3 5 1015.1 1015.2 2.6
23/08:56am 13.4 13.0 13.1 98 0.2 W 7 11 4 6 1015.3 1015.4 2.6
23/08:34am 13.4 14.4 13.1 98 0.2 CALM 0 0 0 0 1015.3 1015.4 2.4
23/08:30am 13.4 14.4 13.1 98 0.2 CALM 0 4 0 2 1015.3 1015.4 2.4
23/08:00am 13.0 13.5 12.7 98 0.2 SE 2 7 1 4 1015.1 1015.2 2.0
23/07:30am 12.7 12.6 12.2 97 0.3 SSW 4 9 2 5 1015.1 1015.2 2.0
23/07:00am 13.1 12.8 12.6 97 0.3 SSE 6 9 3 5 1015.0 1015.1 1.8
23/06:30am 13.1 12.2 12.6 97 0.3 SE 9 11 5 6 1014.7 1014.8 1.8
23/06:00am 13.6 13.4 13.1 97 0.3 SE 6 7 3 4 1015.1 1015.2 1.8
23/05:30am 13.7 14.3 13.2 97 0.3 SE 2 7 1 4 1015.5 1015.6 1.6
23/05:00am 13.8 13.5 13.2 96 0.3 SE 7 9 4 5 1015.3 1015.4 1.4
23/04:30am 14.3 15.0 13.3 94 0.6 WNW 2 11 1 6 1015.6 1015.7 1.0
23/04:00am 14.4 14.3 13.8 96 0.3 E 7 11 4 6 1016.0 1016.1 0.8
23/03:30am 14.4 13.8 13.6 95 0.4 E 9 15 5 8 1016.0 1016.1 0.2
23/03:00am 14.3 13.0 13.7 96 0.3 E 13 17 7 9 1015.9 1016.0 0.2
23/02:30am 14.3 11.9 13.7 96 0.3 ESE 19 26 10 14 1016.2 1016.3 0.2
23/02:00am 14.2 12.5 13.6 96 0.3 E 15 20 8 11 1016.3 1016.4 0.2
23/01:30am 14.4 13.1 13.6 95 0.4 E 13 19 7 10 1016.7 1016.8 0.0
23/01:00am 14.6 13.3 13.6 94 0.6 E 13 19 7 10 1017.2 1017.2 0.0
23/12:30am 14.5 13.1 13.5 94 0.6 E 13 17 7 9 1017.4 1017.4 0.0
23/12:00am 14.5 12.4 13.7 95 0.4 ESE 17 20 9 11 1017.3 1017.3 0.0
 
Date/Time
EST
Temp
°C
App
Temp
°C
Dew
Point
°C
Rel
Hum
%
Delta-T
°C
Wind Press
QNH
hPa
Press
MSL
hPa
Rain since
9am
mm
Dir  Spd
km/h
Gust
km/h
Spd
kts
Gust
kts
22/11:30pm 14.4 12.6 13.4 94 0.6 ESE 15 19 8 10 1017.6 1017.6 0.0
22/11:00pm 14.2 12.8 13.4 95 0.4 E 13 19 7 10 1018.1 1018.1 0.0
22/10:30pm 14.3 12.9 13.5 95 0.4 E 13 20 7 11 1018.3 1018.3 0.0
22/10:00pm 14.2 13.2 13.4 95 0.4 E 11 15 6 8 1018.4 1018.4 0.0
22/09:30pm 14.1 12.4 13.5 96 0.3 ESE 15 19 8 10 1018.1 1018.1 0.0
22/09:00pm 14.1 12.4 13.5 96 0.3 ESE 15 19 8 10 1018.2 1018.2 0.0
22/08:30pm 14.0 12.2 13.4 96 0.3 ESE 15 17 8 9 1018.2 1018.2 0.0
22/08:00pm 13.9 12.5 13.3 96 0.3 ESE 13 17 7 9 1018.1 1018.1 0.0
22/07:30pm 13.9 12.8 13.1 95 0.4 ESE 11 13 6 7 1018.4 1018.4 0.0
22/07:00pm 14.6 14.1 13.8 95 0.4 E 9 13 5 7 1018.3 1018.3 0.0
22/06:30pm 14.6 13.8 14.0 96 0.3 E 11 17 6 9 1018.1 1018.1 0.0
22/06:00pm 13.9 13.3 13.4 97 0.3 E 9 11 5 6 1018.1 1018.1 0.0
22/05:30pm 13.1 12.1 12.3 95 0.4 ESE 9 11 5 6 1018.1 1018.1 0.0
22/05:00pm 13.6 12.4 12.7 94 0.5 ESE 11 13 6 7 1017.9 1017.9 0.0
22/04:37pm 14.2 13.0 12.9 92 0.7 ESE 11 13 6 7 1018.0 1018.0 0.0
22/04:30pm 14.5 13.4 13.2 92 0.7 ESE 11 15 6 8 1018.1 1018.1 0.0
22/04:00pm 14.9 13.9 13.3 90 0.9 E 11 17 6 9 1017.9 1017.9 0.0
22/03:30pm 15.0 13.2 13.4 90 0.9 ESE 15 20 8 11 1017.9 1017.9 0.0
22/03:00pm 15.5 13.7 13.3 87 1.2 E 15 19 8 10 1018.0 1018.0 0.0
22/02:30pm 15.7 13.5 13.2 85 1.4 ESE 17 20 9 11 1018.1 1018.1 0.0
22/02:00pm 15.7 13.4 13.0 84 1.5 ESE 17 22 9 12 1018.2 1018.2 0.0
22/01:57pm 15.7 13.4 13.0 84 1.5 ESE 17 22 9 12 1018.3 1018.3 0.0
22/01:47pm 15.8 14.2 12.9 83 1.6 E 13 22 7 12 1018.4 1018.4 0.0
22/01:30pm 15.7 13.6 12.5 81 1.8 ESE 15 20 8 11 1018.6 1018.6 0.0
22/01:00pm 15.7 14.0 12.5 81 1.8 E 13 19 7 10 1019.0 1019.0 0.0
22/12:30pm 15.7 14.0 12.6 82 1.7 E 13 17 7 9 1019.3 1019.3 0.0
22/12:24pm 15.3 13.5 12.1 81 1.7 E 13 17 7 9 1019.4 1019.4 0.0
22/12:00pm 15.4 13.6 12.2 81 1.7 E 13 17 7 9 1019.7 1019.7 0.0
22/11:30am 15.7 14.9 12.8 83 1.6 E 9 13 5 7 1020.1 1020.1 0.0
22/11:26am 16.0 15.3 13.3 84 1.5 E 9 13 5 7 1020.2 1020.2 0.0
22/11:06am 15.0 13.7 12.5 85 1.4 E 11 15 6 8 1020.4 1020.4 0.0
22/11:00am 14.9 13.6 12.4 85 1.4 E 11 15 6 8 1020.5 1020.5 0.0
22/10:30am 14.6 13.8 13.0 90 0.9 E 9 15 5 8 1020.7 1020.7 0.0
22/10:00am 13.4 13.0 13.1 98 0.2 ESE 7 9 4 5 1020.8 1020.8 0.0
22/09:55am 13.4 12.7 13.2 99 0.1 ESE 9 13 5 7 1020.8 1020.8 0.0
22/09:30am 12.4 13.1 12.2 99 0.1 CALM 0 6 0 3 1021.1 1021.1 0.0
22/09:00am 11.0 11.3 10.8 99 0.1 CALM 0 0 0 0 1021.2 1021.2 0.2
22/08:30am 10.2 10.3 10.1 99 0.1 CALM 0 0 0 0 1021.2 1021.2 0.2
22/08:24am 9.9 9.9 9.8 99 0.1 CALM 0 0 0 0 1021.1 1021.1 0.2
22/08:00am 9.5 8.3 9.4 99 0.0 WSW 6 7 3 4 1020.8 1020.8 0.2
22/07:50am 9.4 7.9 9.3 99 0.0 WSW 7 9 4 5 1020.7 1020.7 0.2
22/07:30am 9.3 7.8 9.2 99 0.0 W 7 9 4 5 1020.5 1020.5 0.2
22/07:26am 9.3 7.8 9.2 99 0.0 WNW 7 9 4 5 1020.5 1020.5 0.2
22/07:00am 9.1 7.6 9.0 99 0.0 W 7 9 4 5 1020.3 1020.3 0.2
22/06:30am 8.8 7.2 8.7 99 0.0 W 7 7 4 4 1020.0 1020.0 0.2
22/06:00am 8.8 7.4 8.7 99 0.0 W 6 7 3 4 1019.9 1019.9 0.2
22/05:49am 8.5 6.8 8.4 99 0.0 W 7 11 4 6 1020.0 1020.0 0.2
22/05:30am 7.6 5.3 7.5 99 0.0 W 9 11 5 6 1020.0 1020.0 0.2
22/05:21am 7.4 4.7 7.3 99 0.0 W 11 13 6 7 1019.9 1019.9 0.2
22/05:15am 6.9 4.5 6.8 99 0.0 W 9 11 5 6 1019.7 1019.7 0.2
22/05:00am 6.5 4.0 6.4 99 0.0 WSW 9 13 5 7 1019.7 1019.7 0.2
22/04:30am 7.3 4.9 7.2 99 0.0 WNW 9 11 5 6 1019.5 1019.5 0.2
22/04:00am 8.1 5.6 8.0 99 0.0 WNW 11 13 6 7 1019.6 1019.6 0.2
22/03:37am 8.1 5.9 8.0 99 0.0 WNW 9 9 5 5 1019.4 1019.4 0.2
22/03:30am 8.3 6.6 8.2 99 0.0 W 7 9 4 5 1019.5 1019.5 0.2
22/03:23am 8.7 7.1 8.6 99 0.0 W 7 9 4 5 1019.5 1019.5 0.2
22/03:00am 9.0 7.1 8.9 99 0.0 W 9 13 5 7 1019.7 1019.7 0.2
22/02:30am 9.2 6.9 9.1 99 0.0 WNW 11 13 6 7 1019.8 1019.8 0.2
22/02:03am 9.1 6.8 9.0 99 0.0 W 11 13 6 7 1019.8 1019.8 0.2
22/02:00am 9.2 6.9 9.1 99 0.0 W 11 13 6 7 1019.8 1019.8 0.2
22/01:30am 9.0 7.1 8.9 99 0.0 WNW 9 11 5 6 1019.7 1019.7 0.2
22/01:05am 8.4 6.9 8.3 99 0.0 W 6 7 3 4 1019.8 1019.8 0.2
22/01:00am 8.1 6.3 8.0 99 0.0 WSW 7 7 4 4 1019.8 1019.8 0.2
22/12:30am 7.3 4.6 7.2 99 0.0 W 11 13 6 7 1019.8 1019.8 0.2
22/12:00am 6.9 4.1 6.8 99 0.0 W 11 13 6 7 1019.7 1019.7 0.2
 
Date/Time
EST
Temp
°C
App
Temp
°C
Dew
Point
°C
Rel
Hum
%
Delta-T
°C
Wind Press
QNH
hPa
Press
MSL
hPa
Rain since
9am
mm
Dir  Spd
km/h
Gust
km/h
Spd
kts
Gust
kts
21/11:30pm 7.3 4.9 7.2 99 0.0 WSW 9 13 5 7 1019.6 1019.6 0.2
21/11:00pm 7.5 5.6 7.4 99 0.0 WSW 7 11 4 6 1019.7 1019.7 0.2
21/10:30pm 8.6 6.6 8.5 99 0.0 SW 9 11 5 6 1019.6 1019.6 0.2
21/10:00pm 7.9 7.0 7.8 99 0.0 SW 2 9 1 5 1019.8 1019.8 0.2
21/09:30pm 7.8 5.6 7.7 99 0.0 WSW 9 11 5 6 1019.7 1019.7 0.2
21/09:00pm 8.5 6.8 8.4 99 0.0 WSW 7 11 4 6 1019.6 1019.6 0.2
21/08:30pm 8.0 6.1 7.7 98 0.1 SW 7 7 4 4 1019.3 1019.3 0.2
21/08:00pm 8.9 8.6 8.5 97 0.2 CALM 0 0 0 0 1019.0 1019.0 0.2
21/07:30pm 10.0 8.6 9.7 98 0.2 WSW 7 7 4 4 1018.9 1018.9 0.2
21/07:00pm 10.3 9.0 9.8 97 0.3 WSW 7 9 4 5 1018.5 1018.5 0.2
21/06:30pm 10.2 8.4 9.6 96 0.3 W 9 11 5 6 1018.2 1018.2 0.2
21/06:00pm 11.3 9.0 10.5 95 0.4 W 13 15 7 8 1017.9 1017.9 0.2
21/05:38pm 11.8 10.3 10.7 93 0.6 WNW 9 13 5 7 1017.5 1017.5 0.2
21/05:30pm 12.3 10.9 11.0 92 0.7 NW 9 11 5 6 1017.4 1017.4 0.2
21/05:00pm 14.3 13.0 12.5 89 1.0 NW 11 15 6 8 1017.3 1017.3 0.2
21/04:30pm 15.4 13.9 13.2 87 1.2 WNW 13 17 7 9 1017.1 1017.1 0.2
21/04:00pm 15.6 15.0 13.4 87 1.2 NW 9 11 5 6 1016.7 1016.8 0.2
21/03:33pm 15.2 15.2 13.6 90 0.9 NNW 6 11 3 6 1016.6 1016.7 0.2
21/03:30pm 15.1 15.9 13.6 91 0.8 N 2 11 1 6 1016.6 1016.7 0.2
21/03:00pm 15.0 15.9 12.9 87 1.2 CALM 0 0 0 0 1016.7 1016.8 0.0
21/02:30pm 15.8 16.8 14.2 90 0.9 ENE 2 7 1 4 1016.6 1016.7 0.0
21/02:00pm 14.6 14.2 13.0 90 0.9 NE 7 9 4 5 1016.6 1016.7 0.0
21/01:30pm 14.4 14.0 13.0 91 0.8 NE 7 9 4 5 1016.6 1016.7 0.0
21/01:00pm 14.2 13.8 13.1 93 0.6 NNE 7 9 4 5 1016.8 1016.9 0.0
21/12:38pm 14.8 14.7 13.8 94 0.6 NE 7 9 4 5 1017.0 1017.0 0.0
21/12:30pm 15.0 15.0 14.2 95 0.5 NE 7 9 4 5 1017.0 1017.0 0.0
21/12:00pm 14.9 16.3 14.4 97 0.3 CALM 0 0 0 0 1017.4 1017.4 0.0
21/11:30am 14.6 15.9 14.1 97 0.3 CALM 0 0 0 0 1017.9 1017.9 0.0
21/11:00am 14.8 15.5 14.6 99 0.1 WNW 4 7 2 4 1018.0 1018.0 0.0
21/10:30am 12.6 12.0 12.4 99 0.1 NW 7 9 4 5 1018.0 1018.0 0.0

Other Formats:

Comma delimited format used in spreadsheet applications
http://www.bom.gov.au/fwo/IDT60801/IDT60801.95957.axf

JavaScript Object Notation format (JSON) in row-major order
http://www.bom.gov.au/fwo/IDT60801/IDT60801.95957.json